Time;durP1;ratioP1;P1;durP2;ratioP2;P2;SDS_P1;SDS_P2;PMS_P1;PMS_P2;Temp;Humidity;BMP_temperature;BMP_pressure;BME280_temperature;BME280_humidity;BME280_pressure;Samples;Min_cycle;Max_cycle;Signal;HPM_P1;HPM_P2
2024/01/04 00:01:12;;;;;;;4.55;1.95;;;7.60;99.90;;;;;;4994999;28;20045;-65
2024/01/04 00:03:38;;;;;;;6.03;1.80;;;7.60;99.90;;;;;;5007598;28;20078;-65
2024/01/04 00:06:04;;;;;;;5.38;2.13;;;7.60;99.90;;;;;;5012862;28;20037;-65
2024/01/04 00:08:29;;;;;;;3.92;2.30;;;7.60;99.90;;;;;;5013249;28;20544;-65
2024/01/04 00:10:55;;;;;;;4.65;2.15;;;7.50;99.90;;;;;;5012276;28;20041;-65
2024/01/04 00:13:20;;;;;;;3.78;1.88;;;7.50;99.90;;;;;;5012270;28;20042;-65
2024/01/04 00:15:46;;;;;;;3.95;2.08;;;7.50;99.90;;;;;;5013330;28;20077;-65
2024/01/04 00:18:11;;;;;;;6.68;1.70;;;7.50;99.90;;;;;;5013206;28;20034;-65
2024/01/04 00:20:37;;;;;;;4.82;2.05;;;7.50;99.90;;;;;;5012441;28;20077;-65
2024/01/04 00:23:03;;;;;;;3.90;2.00;;;7.50;99.90;;;;;;5012005;28;20034;-65
2024/01/04 00:25:28;;;;;;;3.22;1.50;;;7.50;99.90;;;;;;5012303;28;20042;-65
2024/01/04 00:27:54;;;;;;;7.03;1.70;;;7.50;99.90;;;;;;5011780;28;20394;-65
2024/01/04 00:30:19;;;;;;;5.03;1.77;;;7.40;99.90;;;;;;5011278;28;20520;-65
2024/01/04 00:32:45;;;;;;;5.80;1.65;;;7.40;99.90;;;;;;5012067;28;20033;-65
2024/01/04 00:35:10;;;;;;;2.90;1.23;;;7.40;99.90;;;;;;5013099;28;20046;-65
2024/01/04 00:37:36;;;;;;;3.53;1.50;;;7.40;99.90;;;;;;5012046;28;20033;-65
2024/01/04 00:40:02;;;;;;;5.65;1.40;;;7.30;99.90;;;;;;5009770;28;20124;-65
2024/01/04 00:42:27;;;;;;;4.22;1.20;;;7.30;99.90;;;;;;5011887;28;20034;-65
2024/01/04 00:44:53;;;;;;;4.47;1.27;;;7.30;99.90;;;;;;5012662;28;20033;-65
2024/01/04 00:47:18;;;;;;;4.05;1.48;;;7.30;99.90;;;;;;5011934;28;20036;-65
2024/01/04 00:49:44;;;;;;;6.40;1.52;;;7.30;99.90;;;;;;5012443;28;20092;-65
2024/01/04 00:52:10;;;;;;;3.38;1.10;;;7.30;99.90;;;;;;5011488;28;20416;-65
2024/01/04 00:54:35;;;;;;;4.90;1.40;;;7.30;99.90;;;;;;5011443;28;20042;-65
2024/01/04 00:57:01;;;;;;;4.50;1.38;;;7.30;99.90;;;;;;5005506;28;20065;-65
2024/01/04 00:59:27;;;;;;;6.22;1.50;;;7.20;99.90;;;;;;5004071;28;20449;-65
2024/01/04 01:01:52;;;;;;;3.72;1.23;;;7.20;99.90;;;;;;5002762;28;20486;-65
2024/01/04 01:04:18;;;;;;;1.90;1.10;;;7.20;99.90;;;;;;5007521;28;20398;-65
2024/01/04 01:06:44;;;;;;;6.60;1.40;;;7.20;99.90;;;;;;5015826;28;20048;-65
2024/01/04 01:09:09;;;;;;;4.55;1.00;;;7.20;99.90;;;;;;5013932;28;20038;-65
2024/01/04 01:11:35;;;;;;;5.32;1.88;;;7.20;99.90;;;;;;5009383;28;20116;-65
2024/01/04 01:14:00;;;;;;;4.72;1.35;;;7.20;99.90;;;;;;5010294;28;20046;-65
2024/01/04 01:16:26;;;;;;;3.15;1.40;;;7.20;99.90;;;;;;5010885;28;20034;-65
2024/01/04 01:18:51;;;;;;;5.78;1.70;;;7.20;99.90;;;;;;5011198;28;20387;-65
2024/01/04 01:21:17;;;;;;;3.30;1.27;;;7.20;99.90;;;;;;5010577;28;20037;-65
2024/01/04 01:23:42;;;;;;;2.83;1.20;;;7.10;99.90;;;;;;5010882;28;20121;-65
2024/01/04 01:26:08;;;;;;;5.97;1.60;;;7.00;99.90;;;;;;5009751;28;20463;-65
2024/01/04 01:28:34;;;;;;;6.15;1.30;;;7.10;99.90;;;;;;5011580;28;20390;-65
2024/01/04 01:31:01;;;;;;;2.63;1.23;;;7.00;99.90;;;;;;5010515;28;20041;-65
2024/01/04 01:33:27;;;;;;;2.33;1.20;;;7.00;99.90;;;;;;5010568;28;20041;-65
2024/01/04 01:35:53;;;;;;;3.28;1.30;;;7.00;99.90;;;;;;5011637;28;20049;-65
2024/01/04 01:38:18;;;;;;;3.88;1.48;;;6.90;99.90;;;;;;5010910;28;20068;-65
2024/01/04 01:40:44;;;;;;;3.58;1.85;;;6.90;99.90;;;;;;5010604;28;20522;-65
2024/01/04 01:43:11;;;;;;;5.78;1.75;;;6.90;99.90;;;;;;5010744;28;20045;-65
2024/01/04 01:45:36;;;;;;;6.15;1.88;;;6.80;99.90;;;;;;5011734;28;20100;-65
2024/01/04 01:48:04;;;;;;;3.75;1.88;;;6.80;99.90;;;;;;5011463;28;20041;-65
2024/01/04 01:50:31;;;;;;;5.45;2.03;;;6.70;99.90;;;;;;5010813;28;20038;-65
2024/01/04 01:52:57;;;;;;;4.78;1.60;;;6.70;99.90;;;;;;5005503;28;20030;-65
2024/01/04 01:55:24;;;;;;;5.00;1.60;;;6.70;99.90;;;;;;5005811;28;20068;-65
2024/01/04 01:57:51;;;;;;;4.30;1.73;;;6.70;99.90;;;;;;5007838;28;20505;-65
2024/01/04 02:00:17;;;;;;;6.55;1.65;;;6.60;99.90;;;;;;4993537;28;20045;-65
2024/01/04 02:02:48;;;;;;;4.63;1.50;;;6.60;99.90;;;;;;4991570;28;20049;-65
2024/01/04 02:05:14;;;;;;;4.90;1.45;;;6.60;99.90;;;;;;4990812;28;20124;-65
2024/01/04 02:07:40;;;;;;;2.97;1.15;;;6.60;99.90;;;;;;5007821;28;20042;-65
2024/01/04 02:10:06;;;;;;;4.15;1.20;;;6.60;99.90;;;;;;5005985;28;20034;-65
2024/01/04 02:12:32;;;;;;;3.65;1.27;;;6.50;99.90;;;;;;5008274;28;20108;-65
2024/01/04 02:14:58;;;;;;;5.40;1.30;;;6.50;99.90;;;;;;5010269;28;20026;-65
2024/01/04 02:17:25;;;;;;;6.28;1.38;;;6.50;99.90;;;;;;5010329;28;20096;-65
2024/01/04 02:19:52;;;;;;;3.90;1.48;;;6.40;99.90;;;;;;5007053;28;20718;-65
2024/01/04 02:22:17;;;;;;;4.05;1.38;;;6.40;99.90;;;;;;5010139;28;20068;-65
2024/01/04 02:24:46;;;;;;;4.32;1.30;;;6.40;99.90;;;;;;5006119;28;20050;-65
2024/01/04 02:27:12;;;;;;;5.43;1.70;;;6.50;99.90;;;;;;5006290;28;20036;-65
2024/01/04 02:29:38;;;;;;;8.05;1.65;;;6.40;99.90;;;;;;5008992;28;20076;-65
2024/01/04 02:32:04;;;;;;;3.92;1.52;;;6.40;99.90;;;;;;5005918;28;20065;-65
2024/01/04 02:34:30;;;;;;;5.55;1.20;;;6.40;99.90;;;;;;5006131;28;20053;-65
2024/01/04 02:36:56;;;;;;;5.57;1.90;;;6.40;99.90;;;;;;5009977;28;20042;-65
2024/01/04 02:39:22;;;;;;;3.88;1.65;;;6.40;99.90;;;;;;5008426;28;20383;-65
2024/01/04 02:41:47;;;;;;;8.10;2.38;;;6.40;99.90;;;;;;5013940;28;20068;-65
2024/01/04 02:44:13;;;;;;;5.80;1.63;;;6.40;99.90;;;;;;4996232;28;20061;-65
2024/01/04 02:46:39;;;;;;;4.95;1.30;;;6.40;99.90;;;;;;5012035;28;20030;-65
2024/01/04 02:49:04;;;;;;;4.93;1.60;;;6.40;99.90;;;;;;5014531;28;20038;-65
2024/01/04 02:51:30;;;;;;;3.05;1.40;;;6.40;99.90;;;;;;5013318;28;20044;-65
2024/01/04 02:53:56;;;;;;;7.00;1.50;;;6.40;99.90;;;;;;5013207;28;20313;-65
2024/01/04 02:56:21;;;;;;;7.38;1.73;;;6.30;99.90;;;;;;4996532;28;20505;-65
2024/01/04 02:58:47;;;;;;;4.30;1.63;;;6.30;99.90;;;;;;5014426;28;20042;-65
2024/01/04 03:01:22;;;;;;;4.85;1.45;;;6.30;99.90;;;;;;5006705;28;20044;-64
2024/01/04 03:03:52;;;;;;;5.28;1.70;;;6.20;99.90;;;;;;5012986;28;20029;-65
2024/01/04 03:06:27;;;;;;;4.25;1.60;;;6.20;99.90;;;;;;5010665;28;20430;-65
2024/01/04 03:08:53;;;;;;;3.90;1.60;;;6.20;99.90;;;;;;4995973;28;20041;-65
2024/01/04 03:11:19;;;;;;;5.57;1.52;;;6.10;99.90;;;;;;5013776;28;20040;-65
2024/01/04 03:13:47;;;;;;;8.18;1.48;;;6.10;99.90;;;;;;5013763;28;20068;-65
2024/01/04 03:16:19;;;;;;;4.78;1.42;;;6.10;99.90;;;;;;5014046;28;20034;-64
2024/01/04 03:18:45;;;;;;;6.78;1.98;;;6.10;99.90;;;;;;5013917;28;20048;-65
2024/01/04 03:21:10;;;;;;;4.60;1.23;;;6.10;99.90;;;;;;5012793;28;20046;-65
2024/01/04 03:23:36;;;;;;;8.20;1.88;;;6.10;99.90;;;;;;5006660;28;20030;-64
2024/01/04 03:26:02;;;;;;;5.57;1.40;;;6.10;99.90;;;;;;5013573;28;20030;-65
2024/01/04 03:28:27;;;;;;;5.13;1.45;;;6.00;99.90;;;;;;4996169;28;20044;-64
2024/01/04 03:30:53;;;;;;;5.45;1.30;;;6.00;99.90;;;;;;5012708;28;20076;-65
2024/01/04 03:33:18;;;;;;;5.97;1.35;;;6.10;99.90;;;;;;5011344;28;20457;-65
2024/01/04 03:35:44;;;;;;;4.72;1.52;;;6.10;99.90;;;;;;5011345;28;20050;-65
2024/01/04 03:38:09;;;;;;;3.13;1.50;;;6.10;99.90;;;;;;4993102;28;20049;-65
2024/01/04 03:40:35;;;;;;;7.05;1.50;;;6.00;99.90;;;;;;5010772;28;20061;-65
2024/01/04 03:43:02;;;;;;;5.90;1.50;;;6.00;99.90;;;;;;5010041;28;20069;-65
2024/01/04 03:45:28;;;;;;;4.50;1.30;;;6.00;99.90;;;;;;5013137;28;20057;-65
2024/01/04 03:47:54;;;;;;;5.97;1.42;;;6.00;99.90;;;;;;4995623;28;20061;-65
2024/01/04 03:50:19;;;;;;;3.83;1.58;;;6.00;99.90;;;;;;5012862;28;22063;-64
2024/01/04 03:52:45;;;;;;;5.40;1.30;;;6.00;99.90;;;;;;5014334;28;20038;-65
2024/01/04 03:55:10;;;;;;;3.88;1.48;;;6.00;99.90;;;;;;5013870;28;20038;-64
2024/01/04 03:57:36;;;;;;;1.75;1.00;;;6.00;99.90;;;;;;5014172;28;20091;-65
2024/01/04 04:00:03;;;;;;;3.60;1.20;;;6.00;99.90;;;;;;5013726;28;20042;-64
2024/01/04 04:02:28;;;;;;;2.58;1.05;;;6.00;99.90;;;;;;4996023;28;20052;-65
2024/01/04 04:04:56;;;;;;;3.35;0.95;;;6.00;99.90;;;;;;5013840;28;20030;-64
2024/01/04 04:07:24;;;;;;;3.70;1.00;;;6.00;99.90;;;;;;5014143;28;20112;-64
2024/01/04 04:09:50;;;;;;;5.93;1.00;;;6.00;99.90;;;;;;5013600;28;20096;-65
2024/01/04 04:12:15;;;;;;;7.53;1.58;;;6.00;99.90;;;;;;4995988;28;20078;-64
2024/01/04 04:14:41;;;;;;;3.15;1.10;;;6.00;99.90;;;;;;5013584;28;20510;-64
2024/01/04 04:17:07;;;;;;;5.28;1.30;;;6.00;99.90;;;;;;4995971;28;20103;-65
2024/01/04 04:19:33;;;;;;;4.90;1.13;;;6.00;99.90;;;;;;5013834;28;20042;-65
2024/01/04 04:21:59;;;;;;;4.00;1.25;;;6.00;99.90;;;;;;5013145;28;20494;-64
2024/01/04 04:24:24;;;;;;;3.63;1.35;;;6.00;99.90;;;;;;5013670;28;20046;-65
2024/01/04 04:26:50;;;;;;;2.15;1.10;;;6.00;99.90;;;;;;5013632;28;20034;-65
2024/01/04 04:29:15;;;;;;;4.72;1.02;;;6.00;99.90;;;;;;5013710;28;20041;-64
2024/01/04 04:31:41;;;;;;;3.85;0.90;;;6.00;99.90;;;;;;5013358;28;20402;-64
2024/01/04 04:34:06;;;;;;;3.38;1.00;;;6.00;99.90;;;;;;5013580;28;20103;-64
2024/01/04 04:36:32;;;;;;;5.75;0.98;;;6.00;99.90;;;;;;5013187;28;20046;-64
2024/01/04 04:39:02;;;;;;;3.75;0.90;;;6.00;99.90;;;;;;5013119;28;20038;-65
2024/01/04 04:41:28;;;;;;;1.58;0.98;;;6.00;99.90;;;;;;4995321;28;20046;-65
2024/01/04 04:43:54;;;;;;;2.22;0.77;;;6.00;99.90;;;;;;5013132;28;20103;-64
2024/01/04 04:46:20;;;;;;;5.70;1.27;;;6.00;99.90;;;;;;5013234;28;20034;-65
2024/01/04 04:48:46;;;;;;;3.17;1.00;;;6.00;99.90;;;;;;5013213;28;20044;-64
2024/01/04 04:51:11;;;;;;;3.75;0.93;;;6.00;99.90;;;;;;5012791;28;20045;-64
2024/01/04 04:53:37;;;;;;;1.58;0.70;;;6.00;99.90;;;;;;5013076;28;20733;-65
2024/01/04 04:56:04;;;;;;;3.13;0.75;;;5.90;99.90;;;;;;5013140;28;20038;-65
2024/01/04 04:58:29;;;;;;;3.22;0.90;;;5.90;99.90;;;;;;5013184;28;20124;-64
2024/01/04 05:00:55;;;;;;;3.78;0.85;;;5.90;99.90;;;;;;5012281;28;20113;-65
2024/01/04 05:03:21;;;;;;;5.13;0.98;;;5.90;99.90;;;;;;5012494;28;20038;-65
2024/01/04 05:05:47;;;;;;;3.97;0.98;;;5.90;99.90;;;;;;5010980;28;20438;-64
2024/01/04 05:08:12;;;;;;;4.10;0.88;;;5.90;99.90;;;;;;5011878;28;20045;-64
2024/01/04 05:10:38;;;;;;;4.55;0.90;;;5.90;99.90;;;;;;5013082;28;20052;-65
2024/01/04 05:13:03;;;;;;;3.47;0.90;;;5.90;99.90;;;;;;5012698;28;20379;-65
2024/01/04 05:15:29;;;;;;;6.35;1.00;;;5.90;99.90;;;;;;5012839;28;20042;-64
2024/01/04 05:17:55;;;;;;;3.45;1.10;;;5.90;99.90;;;;;;5002032;28;20046;-64
2024/01/04 05:20:21;;;;;;;5.30;1.20;;;5.90;99.90;;;;;;5000647;28;20038;-65
2024/01/04 05:22:46;;;;;;;2.67;1.38;;;5.80;99.90;;;;;;5012222;28;20126;-65
2024/01/04 05:25:12;;;;;;;3.72;1.00;;;5.80;99.90;;;;;;5012775;28;20061;-64
2024/01/04 05:27:38;;;;;;;3.30;0.80;;;5.80;99.90;;;;;;5012376;28;20034;-64
2024/01/04 05:30:09;;;;;;;3.20;0.95;;;5.80;99.90;;;;;;5012563;28;20061;-64
2024/01/04 05:32:35;;;;;;;3.42;0.85;;;5.80;99.90;;;;;;5012012;28;20038;-65
2024/01/04 05:35:01;;;;;;;4.07;0.88;;;5.80;99.90;;;;;;5011114;28;20120;-64
2024/01/04 05:37:27;;;;;;;3.75;0.77;;;5.80;99.90;;;;;;5012455;28;20113;-64
2024/01/04 05:39:53;;;;;;;3.72;1.10;;;5.80;99.90;;;;;;5011125;28;20056;-64
2024/01/04 05:42:18;;;;;;;3.35;1.00;;;5.80;99.90;;;;;;4980511;28;20727;-65
2024/01/04 05:44:44;;;;;;;4.25;0.90;;;5.70;99.90;;;;;;4976063;28;20081;-65
2024/01/04 05:47:09;;;;;;;3.05;0.82;;;5.70;99.90;;;;;;5002069;28;20041;-65
2024/01/04 05:49:35;;;;;;;3.10;0.90;;;5.70;99.90;;;;;;5011784;28;20169;-65
2024/01/04 05:52:00;;;;;;;6.70;1.15;;;5.70;99.90;;;;;;5041984;22;20049;-68
2024/01/04 05:54:26;;;;;;;5.22;0.98;;;5.70;99.90;;;;;;5006085;28;20029;-68
2024/01/04 05:56:51;;;;;;;1.63;0.70;;;5.70;99.90;;;;;;5032097;28;20141;-68
2024/01/04 05:59:17;;;;;;;5.35;0.98;;;5.70;99.90;;;;;;5014512;28;20095;-68
2024/01/04 06:01:43;;;;;;;2.70;0.80;;;5.70;99.90;;;;;;5017242;28;20056;-68
2024/01/04 06:04:08;;;;;;;2.03;0.90;;;5.60;99.90;;;;;;5016103;28;20026;-68
2024/01/04 06:06:34;;;;;;;2.50;0.77;;;5.60;99.90;;;;;;4989260;28;20072;-68
2024/01/04 06:08:59;;;;;;;2.90;0.90;;;5.60;99.90;;;;;;5019074;28;20409;-68
2024/01/04 06:11:25;;;;;;;3.05;0.85;;;5.60;99.90;;;;;;5002446;28;20037;-68
2024/01/04 06:13:50;;;;;;;2.42;1.33;;;5.60;99.90;;;;;;5026372;28;20091;-67
2024/01/04 06:16:17;;;;;;;4.15;0.75;;;5.60;99.90;;;;;;5023451;28;20099;-68
2024/01/04 06:18:43;;;;;;;2.42;0.60;;;5.60;99.90;;;;;;5026543;28;20037;-68
2024/01/04 06:21:09;;;;;;;4.85;1.02;;;5.60;99.90;;;;;;5021912;28;20381;-68
2024/01/04 06:23:34;;;;;;;3.42;1.02;;;5.60;99.90;;;;;;5041888;28;20037;-68
2024/01/04 06:26:00;;;;;;;2.88;0.77;;;5.60;99.90;;;;;;5032648;28;20042;-68
2024/01/04 06:28:25;;;;;;;4.28;1.00;;;5.60;99.90;;;;;;5035321;28;20557;-68
2024/01/04 06:30:51;;;;;;;4.43;1.13;;;5.60;99.90;;;;;;5024115;28;20045;-68
2024/01/04 06:33:17;;;;;;;3.53;1.00;;;5.60;99.90;;;;;;5030706;28;20046;-68
2024/01/04 06:35:43;;;;;;;1.73;0.80;;;5.60;99.90;;;;;;5020734;28;20056;-68
2024/01/04 06:38:09;;;;;;;3.33;0.88;;;5.60;99.90;;;;;;5001231;28;20452;-68
2024/01/04 06:40:35;;;;;;;4.05;0.90;;;5.50;99.90;;;;;;5009346;28;20176;-69
2024/01/04 06:43:03;;;;;;;4.78;0.98;;;5.50;99.90;;;;;;5009210;28;20091;-69
2024/01/04 06:45:29;;;;;;;6.32;1.00;;;5.50;99.90;;;;;;4986874;28;20578;-68
2024/01/04 06:47:55;;;;;;;1.63;0.88;;;5.50;99.90;;;;;;5011898;28;20084;-68
2024/01/04 06:50:21;;;;;;;2.67;0.85;;;5.50;99.90;;;;;;5011905;28;20077;-68
2024/01/04 06:52:51;;;;;;;4.05;0.90;;;5.50;99.90;;;;;;5006234;28;20045;-68
2024/01/04 06:55:20;;;;;;;5.50;1.00;;;5.50;99.90;;;;;;5006744;28;20451;-68
2024/01/04 06:57:45;;;;;;;7.13;1.25;;;5.50;99.90;;;;;;5004046;28;20053;-69
2024/01/04 07:00:11;;;;;;;6.82;1.13;;;5.40;99.90;;;;;;5000613;28;20059;-68
2024/01/04 07:02:37;;;;;;;2.05;0.90;;;5.50;99.90;;;;;;5011674;28;20099;-69
2024/01/04 07:05:06;;;;;;;4.88;1.08;;;5.50;99.90;;;;;;5015193;28;20120;-69
2024/01/04 07:07:36;;;;;;;3.80;1.02;;;5.50;99.90;;;;;;5010081;28;20041;-69
2024/01/04 07:10:02;;;;;;;3.83;1.10;;;5.40;99.90;;;;;;5027680;28;20046;-68
2024/01/04 07:12:29;;;;;;;2.38;1.10;;;5.40;99.90;;;;;;5012108;28;20141;-68
2024/01/04 07:14:55;;;;;;;2.92;0.90;;;5.40;99.90;;;;;;5027160;28;20048;-69
2024/01/04 07:17:22;;;;;;;4.72;1.00;;;5.40;99.90;;;;;;5002944;28;20037;-69
2024/01/04 07:19:47;;;;;;;5.20;1.10;;;5.40;99.90;;;;;;5018146;28;20125;-69
2024/01/04 07:22:15;;;;;;;8.10;1.23;;;5.40;99.90;;;;;;5016128;28;20522;-69
2024/01/04 07:24:41;;;;;;;2.63;0.90;;;5.40;99.90;;;;;;5018698;28;20116;-68
2024/01/04 07:27:08;;;;;;;2.42;0.80;;;5.40;99.90;;;;;;5003830;28;20117;-69
2024/01/04 07:29:34;;;;;;;2.63;0.90;;;5.40;99.90;;;;;;5011885;28;20041;-68
2024/01/04 07:32:00;;;;;;;6.90;1.48;;;5.40;99.90;;;;;;5022376;28;20512;-68
2024/01/04 07:34:27;;;;;;;4.85;0.80;;;5.40;99.90;;;;;;5001940;28;20046;-68
2024/01/04 07:36:52;;;;;;;2.58;0.73;;;5.40;99.90;;;;;;5020232;28;20065;-68
2024/01/04 07:39:18;;;;;;;3.58;0.80;;;5.40;99.90;;;;;;5001388;28;20405;-68
2024/01/04 07:41:44;;;;;;;2.63;0.80;;;5.30;99.90;;;;;;5008660;28;20045;-68
2024/01/04 07:44:13;;;;;;;2.92;1.00;;;5.40;99.90;;;;;;5026155;28;20045;-68
2024/01/04 07:46:38;;;;;;;6.00;1.38;;;5.40;99.90;;;;;;5009538;28;20454;-68
2024/01/04 07:49:04;;;;;;;6.80;0.95;;;5.40;99.90;;;;;;5008768;28;20073;-68
2024/01/04 07:51:30;;;;;;;3.50;0.90;;;5.40;99.90;;;;;;5008412;28;20033;-68
2024/01/04 07:53:55;;;;;;;4.00;1.02;;;5.40;99.90;;;;;;5003490;28;20037;-68
2024/01/04 07:56:21;;;;;;;3.97;1.15;;;5.30;99.90;;;;;;5033398;28;20033;-68
2024/01/04 07:58:46;;;;;;;1.05;0.65;;;5.30;99.90;;;;;;5026180;28;20038;-68
2024/01/04 08:01:13;;;;;;;6.40;1.00;;;5.40;99.90;;;;;;5034259;28;20034;-68
2024/01/04 08:03:38;;;;;;;3.13;1.08;;;5.30;99.90;;;;;;5016690;28;20045;-68
2024/01/04 08:06:05;;;;;;;2.97;1.20;;;5.40;99.90;;;;;;5022942;28;20139;-68
2024/01/04 08:08:31;;;;;;;5.40;1.20;;;5.30;99.90;;;;;;5016408;28;20497;-68
2024/01/04 08:10:57;;;;;;;5.97;1.05;;;5.30;99.90;;;;;;5015896;28;20453;-68
2024/01/04 08:13:22;;;;;;;2.70;0.98;;;5.30;99.90;;;;;;5032084;28;20080;-68
2024/01/04 08:15:50;;;;;;;5.78;1.10;;;5.30;99.90;;;;;;5028295;28;20044;-68
2024/01/04 08:18:15;;;;;;;4.55;1.45;;;5.30;99.90;;;;;;5010039;28;20095;-68
2024/01/04 08:20:41;;;;;;;2.65;1.15;;;5.30;99.90;;;;;;5022454;28;20049;-68
2024/01/04 08:23:06;;;;;;;3.45;1.10;;;5.30;99.90;;;;;;5031386;28;20044;-68
2024/01/04 08:25:32;;;;;;;2.45;0.82;;;5.30;99.90;;;;;;5032108;28;20485;-68
2024/01/04 08:27:58;;;;;;;4.07;1.20;;;5.30;99.90;;;;;;5031881;28;20037;-68
2024/01/04 08:30:23;;;;;;;2.30;0.95;;;5.30;99.90;;;;;;5032135;28;20041;-68
2024/01/04 08:32:49;;;;;;;4.25;1.08;;;5.20;99.90;;;;;;5024845;28;20410;-68
2024/01/04 08:35:17;;;;;;;5.80;1.75;;;5.30;99.90;;;;;;5029123;28;20048;-68
2024/01/04 08:37:45;;;;;;;3.85;1.05;;;5.30;99.90;;;;;;5027836;28;20053;-68
2024/01/04 08:40:11;;;;;;;3.83;0.80;;;5.30;99.90;;;;;;5012570;28;20116;-67
2024/01/04 08:42:37;;;;;;;4.20;0.98;;;5.30;99.90;;;;;;5017162;28;20041;-67
2024/01/04 08:45:06;;;;;;;3.80;1.10;;;5.30;99.90;;;;;;5023109;28;20384;-67
2024/01/04 08:47:32;;;;;;;3.97;1.70;;;5.30;99.90;;;;;;5031318;28;20037;-68
2024/01/04 08:50:01;;;;;;;2.83;1.20;;;5.40;99.90;;;;;;5022149;28;20482;-68
2024/01/04 08:52:27;;;;;;;5.22;1.10;;;5.40;99.90;;;;;;5016787;28;20030;-68
2024/01/04 08:54:53;;;;;;;2.55;1.20;;;5.40;99.90;;;;;;5032092;28;20045;-67
2024/01/04 08:57:19;;;;;;;2.63;1.25;;;5.40;99.90;;;;;;5024412;28;20039;-67
2024/01/04 08:59:48;;;;;;;3.80;1.33;;;5.40;99.90;;;;;;5022365;28;20456;-67
2024/01/04 09:02:13;;;;;;;5.10;1.38;;;5.40;99.90;;;;;;5002942;28;20128;-67
2024/01/04 09:04:39;;;;;;;5.82;1.00;;;5.40;99.90;;;;;;5031159;28;20125;-67
2024/01/04 09:07:05;;;;;;;4.25;1.20;;;5.40;99.90;;;;;;4998121;28;20469;-68
2024/01/04 09:09:30;;;;;;;2.28;0.90;;;5.40;99.90;;;;;;5015715;28;20033;-68
2024/01/04 09:11:56;;;;;;;4.63;1.38;;;5.40;99.90;;;;;;5032062;28;20038;-68
2024/01/04 09:14:22;;;;;;;5.50;1.10;;;5.50;99.90;;;;;;4997193;28;20050;-68
2024/01/04 09:16:48;;;;;;;2.80;1.02;;;5.50;99.90;;;;;;5034165;28;20037;-67
2024/01/04 09:19:15;;;;;;;4.35;1.50;;;5.50;99.90;;;;;;5031713;28;20045;-67
2024/01/04 09:21:42;;;;;;;3.15;0.95;;;5.60;99.90;;;;;;5024823;28;20550;-67
2024/01/04 09:24:08;;;;;;;3.00;1.00;;;5.60;99.90;;;;;;5020843;28;20069;-67
2024/01/04 09:26:44;;;;;;;3.92;1.50;;;5.60;99.90;;;;;;5023031;28;20409;-67
2024/01/04 09:29:18;;;;;;;2.88;0.88;;;5.60;99.90;;;;;;5021020;28;20128;-67
2024/01/04 09:31:44;;;;;;;4.23;1.00;;;5.60;99.90;;;;;;5024361;28;20049;-67
2024/01/04 09:34:09;;;;;;;3.55;1.00;;;5.60;99.90;;;;;;5024464;28;20033;-67
2024/01/04 09:36:35;;;;;;;3.17;1.20;;;5.60;99.90;;;;;;5031377;28;20038;-68
2024/01/04 09:39:04;;;;;;;3.13;0.90;;;5.60;99.90;;;;;;5004215;28;20121;-68
2024/01/04 09:41:31;;;;;;;2.88;0.90;;;5.70;99.90;;;;;;5014472;28;20506;-69
2024/01/04 09:44:00;;;;;;;3.42;1.02;;;5.70;99.90;;;;;;5023783;28;20505;-69
2024/01/04 09:46:32;;;;;;;1.63;0.70;;;5.60;99.90;;;;;;4994843;28;20042;-69
2024/01/04 09:49:01;;;;;;;3.63;0.82;;;5.70;99.90;;;;;;5012255;28;20116;-69
2024/01/04 09:51:28;;;;;;;3.08;0.80;;;5.70;99.90;;;;;;5025168;28;20044;-68
2024/01/04 09:53:54;;;;;;;2.80;0.80;;;5.70;99.90;;;;;;5031429;28;20074;-69
2024/01/04 09:56:23;;;;;;;3.20;0.90;;;5.70;99.90;;;;;;5024470;28;20046;-69
2024/01/04 09:58:49;;;;;;;3.92;0.85;;;5.60;99.90;;;;;;5010606;28;20041;-69
2024/01/04 10:01:35;;;;;;;1.73;0.80;;;5.60;99.90;;;;;;5031330;28;20096;-69
2024/01/04 10:04:11;;;;;;;4.40;1.00;;;5.60;99.90;;;;;;5024893;28;20029;-69
2024/01/04 10:06:38;;;;;;;2.33;0.88;;;5.60;99.90;;;;;;5022223;28;20045;-70
2024/01/04 10:09:19;;;;;;;3.97;1.05;;;5.60;99.90;;;;;;5020643;28;20080;-69
2024/01/04 10:12:05;;;;;;;4.60;1.10;;;5.60;99.90;;;;;;5006578;28;20467;-69
2024/01/04 10:14:32;;;;;;;2.97;0.80;;;5.60;99.90;;;;;;5013403;28;20037;-69
2024/01/04 10:17:01;;;;;;;3.90;0.85;;;5.70;99.90;;;;;;5011581;28;20130;-69
2024/01/04 10:19:28;;;;;;;2.72;0.98;;;5.70;99.90;;;;;;5023167;28;20297;-69
2024/01/04 10:22:03;;;;;;;7.07;1.35;;;5.70;99.90;;;;;;5032238;28;20092;-68
2024/01/04 10:24:31;;;;;;;3.63;0.90;;;5.70;99.90;;;;;;5024601;28;20033;-69
2024/01/04 10:26:58;;;;;;;1.67;0.93;;;5.70;99.90;;;;;;5020969;28;20044;-69
2024/01/04 10:29:25;;;;;;;3.17;0.90;;;5.70;99.90;;;;;;5015484;28;20116;-69
2024/01/04 10:32:00;;;;;;;6.65;1.27;;;5.80;99.90;;;;;;5019779;28;20042;-69
2024/01/04 10:34:26;;;;;;;3.90;1.50;;;5.80;99.90;;;;;;5013863;28;20391;-69
2024/01/04 10:36:54;;;;;;;2.55;0.90;;;5.70;99.90;;;;;;5019654;28;20058;-69
2024/01/04 10:39:20;;;;;;;2.47;0.70;;;5.80;99.90;;;;;;5013401;28;20130;-69
2024/01/04 10:42:01;;;;;;;3.00;0.80;;;5.80;99.90;;;;;;5013452;28;20042;-69
2024/01/04 10:44:33;;;;;;;2.45;0.90;;;5.80;99.90;;;;;;5013840;28;20511;-69
2024/01/04 10:46:59;;;;;;;;;;;5.80;99.90;;;;;;5031990;28;20029;-69
2024/01/04 10:49:25;;;;;;;2.60;0.90;;;5.80;99.90;;;;;;5013644;28;20003;-69
2024/01/04 10:52:04;;;;;;;2.92;0.93;;;5.70;99.90;;;;;;5030915;28;20540;-69
2024/01/04 10:54:34;;;;;;;1.35;0.90;;;5.70;99.90;;;;;;5027833;28;20034;-68
2024/01/04 10:57:01;;;;;;;4.30;1.00;;;5.70;99.90;;;;;;5036047;28;20042;-68
2024/01/04 10:59:32;;;;;;;2.63;1.00;;;5.80;99.90;;;;;;5025648;28;20052;-68
2024/01/04 11:01:58;;;;;;;;;;;5.80;99.90;;;;;;5033484;28;20045;-68
2024/01/04 11:04:25;;;;;;;3.30;0.93;;;5.70;99.90;;;;;;5033733;28;19927;-68
2024/01/04 11:06:52;;;;;;;3.15;1.00;;;5.80;99.90;;;;;;5016859;28;20037;-68
2024/01/04 11:09:19;;;;;;;4.10;1.00;;;5.80;99.90;;;;;;5034440;28;20088;-68
2024/01/04 11:11:46;;;;;;;2.22;0.80;;;5.80;99.90;;;;;;5034751;28;20041;-68
2024/01/04 11:14:11;;;;;;;3.10;0.80;;;5.80;99.90;;;;;;5033572;28;20479;-69
2024/01/04 11:17:08;;;;;;;1.95;0.70;;;5.80;99.90;;;;;;5033109;28;20124;-69
2024/01/04 11:20:08;;;;;;;2.83;0.77;;;5.80;99.90;;;;;;5021455;28;20049;-68
2024/01/04 11:23:11;;;;;;;2.85;1.02;;;5.80;99.90;;;;;;5019294;28;20092;-68
2024/01/04 11:25:40;;;;;;;3.25;1.23;;;5.80;99.90;;;;;;4997063;28;20520;-68
2024/01/04 11:28:08;;;;;;;2.53;1.00;;;5.90;99.90;;;;;;4996939;28;20414;-68
2024/01/04 11:30:33;;;;;;;5.30;0.98;;;5.90;99.90;;;;;;4996773;28;20042;-69
2024/01/04 11:32:59;;;;;;;4.18;1.08;;;5.90;99.90;;;;;;4998252;28;20418;-68
2024/01/04 11:35:25;;;;;;;5.43;0.90;;;5.90;99.90;;;;;;5040086;28;20166;-69
2024/01/04 11:37:51;;;;;;;1.70;0.77;;;5.90;99.90;;;;;;5036197;28;20037;-69
2024/01/04 11:40:26;;;;;;;2.58;0.73;;;5.90;99.90;;;;;;5032917;28;20044;-68
2024/01/04 11:42:52;;;;;;;3.13;1.10;;;5.90;99.90;;;;;;5036183;28;20124;-68
2024/01/04 11:45:18;;;;;;;1.75;0.65;;;5.90;99.90;;;;;;5036071;28;20476;-69
2024/01/04 11:47:47;;;;;;;5.05;1.00;;;5.90;99.90;;;;;;5053910;28;20448;-69
2024/01/04 11:53:01;;;;;;;2.75;1.20;;;6.00;99.90;;;;;;5053108;28;20045;-67
2024/01/04 11:55:28;;;;;;;3.33;0.95;;;6.00;99.90;;;;;;5054752;28;20507;-66
2024/01/04 11:58:04;;;;;;;2.05;1.00;;;6.00;99.90;;;;;;5053220;28;20040;-67
2024/01/04 12:00:33;;;;;;;2.72;0.68;;;6.10;99.90;;;;;;5056765;28;20064;-67
2024/01/04 12:03:01;;;;;;;1.20;0.60;;;6.10;99.90;;;;;;5074659;28;20040;-67
2024/01/04 12:05:29;;;;;;;3.17;1.00;;;6.10;99.90;;;;;;5073436;28;20072;-67
2024/01/04 12:07:55;;;;;;;3.15;1.10;;;6.10;99.90;;;;;;5073536;28;20506;-67
2024/01/04 12:10:21;;;;;;;1.65;0.70;;;6.10;99.90;;;;;;5073981;28;20044;-66
2024/01/04 12:12:49;;;;;;;4.05;0.85;;;6.10;99.90;;;;;;5072040;28;20038;-66
2024/01/04 12:15:20;;;;;;;2.72;0.98;;;6.10;99.90;;;;;;5072305;28;20044;-66
2024/01/04 12:17:46;;;;;;;1.88;0.77;;;6.10;99.90;;;;;;5073352;28;20101;-66
2024/01/04 12:20:12;;;;;;;2.28;1.00;;;6.00;99.90;;;;;;5073149;28;20044;-66
2024/01/04 12:22:41;;;;;;;4.03;1.20;;;6.00;99.90;;;;;;5072283;28;20549;-66
2024/01/04 12:25:08;;;;;;;3.47;0.80;;;6.00;99.90;;;;;;5071892;28;20076;-66
2024/01/04 12:27:36;;;;;;;3.55;1.10;;;6.10;99.90;;;;;;5071897;28;20101;-66
2024/01/04 12:30:06;;;;;;;2.80;0.95;;;6.10;99.90;;;;;;5071781;28;20089;-66
2024/01/04 12:32:34;;;;;;;1.75;0.73;;;6.20;99.90;;;;;;5071781;28;20206;-66
2024/01/04 12:35:03;;;;;;;1.73;0.85;;;6.20;99.90;;;;;;5055068;28;20119;-66
2024/01/04 12:37:29;;;;;;;0.65;0.60;;;6.20;99.90;;;;;;5071679;28;20040;-66
2024/01/04 12:40:09;;;;;;;4.03;0.90;;;6.20;99.90;;;;;;5071550;28;20102;-66
2024/01/04 12:42:35;;;;;;;2.47;0.95;;;6.20;99.90;;;;;;5071465;28;20047;-66
2024/01/04 12:45:02;;;;;;;4.10;0.80;;;6.20;99.90;;;;;;5071526;28;20488;-66
2024/01/04 12:47:30;;;;;;;2.95;1.00;;;6.20;99.90;;;;;;5072987;28;20094;-66
2024/01/04 12:49:57;;;;;;;1.27;0.88;;;6.20;99.90;;;;;;5073026;28;20036;-66
2024/01/04 12:52:23;;;;;;;3.28;0.90;;;6.10;99.90;;;;;;5071185;28;20044;-66
2024/01/04 12:54:49;;;;;;;3.90;1.23;;;6.10;99.90;;;;;;5072998;28;20063;-66
2024/01/04 12:57:14;;;;;;;5.80;0.80;;;6.20;99.90;;;;;;5071342;28;20440;-66
2024/01/04 12:59:58;;;;;;;1.92;1.00;;;6.20;99.90;;;;;;5072610;28;20052;-66